Time;durP1;ratioP1;P1;durP2;ratioP2;P2;SDS_P1;SDS_P2;PMS_P1;PMS_P2;Temp;Humidity;BMP_temperature;BMP_pressure;BME280_temperature;BME280_humidity;BME280_pressure;Samples;Min_cycle;Max_cycle;Signal;HPM_P1;HPM_P2
2022/12/24 00:02:43;;;;;;;6.30;1.42;;;;;;;9.77;100.00;97177.34;15293002;19;20035;-77
2022/12/24 00:08:10;;;;;;;5.20;1.38;;;;;;;9.76;100.00;97183.78;15301287;19;20016;-76
2022/12/24 00:13:35;;;;;;;2.72;0.95;;;;;;;9.84;100.00;97189.88;15291827;19;20766;-75
2022/12/24 00:18:59;;;;;;;4.50;1.20;;;;;;;9.92;100.00;97193.50;15292274;19;20010;-76
2022/12/24 00:24:27;;;;;;;5.03;1.23;;;;;;;9.78;100.00;97208.59;15290707;19;20025;-77
2022/12/24 00:29:51;;;;;;;4.30;1.27;;;;;;;9.79;100.00;97203.06;15288631;19;20025;-77
2022/12/24 00:35:16;;;;;;;2.92;0.82;;;;;;;9.81;100.00;97206.41;15291806;19;20014;-77
2022/12/24 00:40:43;;;;;;;3.95;1.08;;;;;;;9.81;100.00;97227.91;15291681;19;20073;-76
2022/12/24 00:46:14;;;;;;;4.07;1.25;;;;;;;9.86;100.00;97225.50;15283072;19;20509;-76
2022/12/24 00:51:39;;;;;;;4.77;1.03;;;;;;;9.93;100.00;97232.84;15294594;19;20011;-76
2022/12/24 00:57:06;;;;;;;3.88;1.08;;;;;;;9.87;100.00;97232.53;15289897;19;20018;-76
2022/12/24 01:02:31;;;;;;;3.65;1.10;;;;;;;9.80;100.00;97234.31;15286747;19;20022;-76
2022/12/24 01:07:55;;;;;;;3.60;1.17;;;;;;;9.74;100.00;97240.44;15288301;19;20062;-77
2022/12/24 01:13:23;;;;;;;3.83;1.08;;;;;;;9.72;100.00;97263.97;15292185;19;20102;-77
2022/12/24 01:18:47;;;;;;;3.60;0.90;;;;;;;9.65;100.00;97257.66;15283261;19;20090;-77
2022/12/24 01:24:16;;;;;;;4.57;1.00;;;;;;;9.63;100.00;97254.34;15288154;19;20549;-77
2022/12/24 01:29:43;;;;;;;2.97;1.00;;;;;;;9.73;100.00;97257.56;15291896;19;20014;-78
2022/12/24 01:35:09;;;;;;;2.60;1.05;;;;;;;9.75;100.00;97276.25;15293186;19;20024;-76
2022/12/24 01:46:26;;;;;;;4.30;1.10;;;;;;;9.84;100.00;97289.41;15300050;19;20014;-77
2022/12/24 01:51:57;;;;;;;4.55;1.45;;;;;;;9.91;100.00;97285.97;15284037;19;20473;-75
2022/12/24 01:57:25;;;;;;;4.03;1.13;;;;;;;9.86;100.00;97295.44;15284093;19;20017;-76
2022/12/24 02:02:55;;;;;;;4.03;1.10;;;;;;;9.78;100.00;97297.38;15285601;19;20019;-76
2022/12/24 02:08:20;;;;;;;3.78;0.82;;;;;;;9.84;100.00;97318.16;15283527;19;20011;-76
2022/12/24 02:13:48;;;;;;;3.10;0.90;;;;;;;9.76;100.00;97329.00;15287886;19;20110;-76
2022/12/24 02:19:30;;;;;;;4.72;1.08;;;;;;;9.71;100.00;97335.75;15295432;19;20429;-77
2022/12/24 02:25:19;;;;;;;5.10;1.30;;;;;;;9.78;100.00;97332.31;15298098;19;20263;-80
2022/12/24 02:30:51;;;;;;;1.85;0.70;;;;;;;9.70;100.00;97350.22;15304216;19;20033;-77
2022/12/24 02:36:25;;;;;;;4.75;1.33;;;;;;;9.59;100.00;97328.31;15296362;19;20018;-79
2022/12/24 02:42:09;;;;;;;2.85;1.00;;;;;;;9.41;100.00;97356.34;15304322;19;20033;-77
2022/12/24 02:47:38;;;;;;;4.85;1.45;;;;;;;9.32;100.00;97352.06;15287690;19;20085;-76
2022/12/24 02:53:02;;;;;;;4.40;1.25;;;;;;;9.40;100.00;97355.53;15290723;19;20018;-75
2022/12/24 02:58:40;;;;;;;3.85;1.15;;;;;;;9.28;100.00;97364.19;15292007;19;20033;-76
2022/12/24 03:04:38;;;;;;;4.97;1.40;;;;;;;9.36;100.00;97385.63;15296046;19;20011;-76
2022/12/24 03:10:21;;;;;;;5.57;1.33;;;;;;;9.39;100.00;97361.94;15290179;19;20163;-75
2022/12/24 03:15:46;;;;;;;3.38;1.17;;;;;;;9.33;100.00;97375.25;15292358;19;20043;-77
2022/12/24 03:21:19;;;;;;;6.15;1.23;;;;;;;9.32;100.00;97365.50;15302512;19;20015;-77
2022/12/24 03:26:44;;;;;;;4.20;1.10;;;;;;;9.53;100.00;97387.19;15295787;19;20078;-78
2022/12/24 03:32:10;;;;;;;7.07;1.30;;;;;;;9.50;100.00;97387.53;15302632;19;20361;-78
2022/12/24 03:37:37;;;;;;;3.95;1.00;;;;;;;9.49;100.00;97409.22;15299948;19;20017;-80
2022/12/24 03:43:02;;;;;;;6.15;1.55;;;;;;;9.42;100.00;97433.31;15298877;19;20010;-80
2022/12/24 03:48:26;;;;;;;5.90;1.20;;;;;;;9.49;100.00;97422.66;15305124;19;20058;-77
2022/12/24 03:53:54;;;;;;;4.03;1.25;;;;;;;9.38;100.00;97432.81;15303680;19;20042;-78
2022/12/24 03:59:18;;;;;;;5.03;1.30;;;;;;;9.41;100.00;97431.63;15292696;19;20340;-78
2022/12/24 04:04:43;;;;;;;6.38;1.50;;;;;;;9.37;100.00;97452.66;15301082;19;20026;-78
2022/12/24 04:10:11;;;;;;;5.43;1.40;;;;;;;9.27;100.00;97472.69;15301471;19;20029;-80
2022/12/24 04:15:36;;;;;;;6.18;1.42;;;;;;;9.27;100.00;97500.44;15301346;19;20014;-77
2022/12/24 04:21:00;;;;;;;5.85;1.50;;;;;;;9.25;100.00;97471.03;15303573;19;20009;-77
2022/12/24 04:26:28;;;;;;;3.95;1.17;;;;;;;9.06;100.00;97503.72;15298930;19;20014;-78
2022/12/24 04:31:52;;;;;;;5.47;1.50;;;;;;;8.94;100.00;97505.91;15297048;19;20354;-78
2022/12/24 04:37:17;;;;;;;3.83;1.30;;;;;;;8.92;100.00;97516.84;15300486;19;20082;-79
2022/12/24 04:42:51;;;;;;;5.32;1.40;;;;;;;8.82;100.00;97502.78;15302449;19;20018;-79
2022/12/24 04:48:16;;;;;;;4.78;1.50;;;;;;;8.76;100.00;97523.09;15293533;19;20022;-78
2022/12/24 04:53:42;;;;;;;4.70;1.25;;;;;;;8.67;100.00;97517.91;15298795;19;20474;-77
2022/12/24 04:59:11;;;;;;;7.03;1.40;;;;;;;8.60;100.00;97521.31;15301846;19;20006;-78
2022/12/24 05:04:36;;;;;;;5.28;1.60;;;;;;;8.59;100.00;97529.50;15294053;19;20082;-78
2022/12/24 05:10:00;;;;;;;7.78;1.58;;;;;;;8.53;100.00;97541.78;15301497;19;20046;-80
2022/12/24 05:15:27;;;;;;;6.55;1.40;;;;;;;8.44;100.00;97553.50;15301319;19;20019;-78
2022/12/24 05:20:52;;;;;;;4.88;1.40;;;;;;;8.68;100.00;97549.13;15295964;19;20015;-78
2022/12/24 05:26:25;;;;;;;5.40;1.50;;;;;;;8.69;100.00;97573.16;15301751;19;20006;-79
2022/12/24 05:31:53;;;;;;;5.40;1.42;;;;;;;8.73;100.00;97576.31;15301746;19;20028;-78
2022/12/24 05:37:17;;;;;;;5.65;1.40;;;;;;;8.83;100.00;97593.09;15303387;19;20011;-78
2022/12/24 05:42:42;;;;;;;7.18;1.55;;;;;;;8.84;100.00;97594.78;15318866;19;20022;-79
2022/12/24 05:48:09;;;;;;;4.93;1.45;;;;;;;8.91;100.00;97595.75;15291580;19;20018;-78
2022/12/24 05:53:34;;;;;;;5.75;1.55;;;;;;;8.89;100.00;97605.00;15306063;19;20466;-78
2022/12/24 05:59:05;;;;;;;4.43;1.20;;;;;;;8.81;100.00;97629.19;15285128;19;20082;-51
2022/12/24 06:04:33;;;;;;;3.43;0.90;;;;;;;8.58;100.00;97654.88;15280947;19;20018;-57
2022/12/24 06:09:57;;;;;;;3.40;1.00;;;;;;;8.40;100.00;97660.38;15273429;19;20021;-51
2022/12/24 06:15:22;;;;;;;4.47;1.13;;;;;;;8.15;100.00;97700.56;15283829;19;20056;-52
2022/12/24 06:20:49;;;;;;;4.22;1.20;;;;;;;8.05;100.00;97696.38;15277329;19;20188;-51
2022/12/24 06:26:16;;;;;;;5.25;1.20;;;;;;;7.90;100.00;97712.22;15277824;19;20022;-56
2022/12/24 06:31:40;;;;;;;5.05;1.20;;;;;;;7.80;100.00;97717.72;15295878;19;20032;-50
2022/12/24 06:37:16;;;;;;;6.60;1.48;;;;;;;7.79;100.00;97710.69;15297392;19;20015;-55
2022/12/24 06:42:40;;;;;;;5.50;1.30;;;;;;;7.71;100.00;97704.25;15289871;19;20025;-51
2022/12/24 06:48:08;;;;;;;5.68;1.40;;;;;;;7.68;100.00;97715.31;15292236;19;20018;-52
2022/12/24 06:53:35;;;;;;;7.57;1.65;;;;;;;7.61;100.00;97722.31;15296887;19;20709;-54
2022/12/24 06:58:59;;;;;;;5.88;1.73;;;;;;;7.55;100.00;97728.31;15286401;19;20019;-50
2022/12/24 07:04:24;;;;;;;8.05;1.50;;;;;;;7.62;100.00;97732.03;15295296;19;20017;-51
2022/12/24 07:09:51;;;;;;;7.15;1.83;;;;;;;7.58;100.00;97733.38;15291879;19;20077;-52
2022/12/24 07:15:17;;;;;;;6.03;1.73;;;;;;;7.63;100.00;97740.94;15284250;19;20028;-52
2022/12/24 07:20:44;;;;;;;6.45;1.70;;;;;;;7.71;100.00;97741.78;15298048;19;20028;-56
2022/12/24 07:26:14;;;;;;;8.30;1.90;;;;;;;7.65;100.00;97750.50;15299524;19;20018;-50
2022/12/24 07:31:38;;;;;;;10.73;1.90;;;;;;;7.64;100.00;97766.75;15290307;19;20090;-55
2022/12/24 07:37:03;;;;;;;9.15;2.03;;;;;;;7.67;100.00;97772.63;15291697;19;20073;-55
2022/12/24 07:42:30;;;;;;;5.75;1.60;;;;;;;7.65;100.00;97769.25;15292174;19;20018;-54
2022/12/24 07:47:55;;;;;;;5.32;1.75;;;;;;;7.70;100.00;97766.09;15282734;19;20028;-54
2022/12/24 07:53:19;;;;;;;6.90;1.77;;;;;;;7.70;100.00;97783.00;15292471;19;20106;-52
2022/12/24 07:58:47;;;;;;;8.80;1.92;;;;;;;7.82;100.00;97790.81;15290493;19;20024;-54
2022/12/24 16:20:00;;;;;;;5.40;1.73;;;;;;;7.78;100.00;98274.81;15317943;19;20018;-83
2022/12/24 16:25:26;;;;;;;6.05;1.95;;;;;;;7.73;100.00;98280.63;15297628;19;20070;-83
2022/12/24 16:30:55;;;;;;;5.85;1.92;;;;;;;7.74;100.00;98276.09;15304260;19;20078;-82
2022/12/24 16:36:22;;;;;;;5.05;1.40;;;;;;;7.71;100.00;98278.06;15299818;19;20022;-82
2022/12/24 16:47:29;;;;;;;5.65;1.50;;;;;;;7.53;100.00;98291.38;15296789;19;20022;-83
2022/12/24 16:53:03;;;;;;;5.05;1.50;;;;;;;7.49;100.00;98289.13;15305205;19;20019;-84
2022/12/24 16:58:34;;;;;;;5.85;1.52;;;;;;;7.40;100.00;98288.19;15289527;19;20028;-82
2022/12/24 17:04:00;;;;;;;5.45;1.60;;;;;;;7.37;100.00;98294.66;15290228;19;20360;-86
2022/12/24 17:09:27;;;;;;;4.00;1.38;;;;;;;7.43;100.00;98305.81;15275991;19;20021;-84
2022/12/24 17:14:52;;;;;;;5.72;1.63;;;;;;;7.33;100.00;98306.69;15302086;19;20023;-84
2022/12/24 17:20:17;;;;;;;4.93;1.63;;;;;;;7.24;100.00;98312.88;15312885;19;20015;-83
2022/12/24 17:25:46;;;;;;;5.00;1.60;;;;;;;7.16;100.00;98315.44;15299107;19;20025;-85
2022/12/24 17:31:16;;;;;;;6.07;1.77;;;;;;;7.09;100.00;98331.22;15299925;19;20023;-83
2022/12/24 17:36:41;;;;;;;7.28;1.73;;;;;;;6.96;100.00;98327.97;15300824;19;20094;-83
2022/12/24 17:42:09;;;;;;;5.05;1.50;;;;;;;6.85;100.00;98329.81;15298135;19;20021;-84
2022/12/24 17:47:38;;;;;;;6.57;1.48;;;;;;;6.73;100.00;98339.81;15300920;19;20048;-82
2022/12/24 17:53:03;;;;;;;4.32;1.50;;;;;;;6.53;100.00;98336.25;15304334;19;20018;-84
2022/12/24 17:58:30;;;;;;;5.75;1.70;;;;;;;6.42;100.00;98347.91;15290493;19;20032;-83
2022/12/24 18:04:01;;;;;;;4.97;1.70;;;;;;;6.30;100.00;98349.00;15294641;19;20028;-86
2022/12/24 18:09:26;;;;;;;6.57;1.67;;;;;;;6.25;100.00;98361.94;15290677;19;20033;-84
2022/12/24 18:14:53;;;;;;;6.13;1.70;;;;;;;6.16;100.00;98361.78;15289283;19;20022;-84
2022/12/24 18:20:24;;;;;;;5.13;1.58;;;;;;;6.06;100.00;98368.91;15297708;19;20043;-83
2022/12/24 18:25:50;;;;;;;6.70;1.80;;;;;;;5.97;100.00;98381.22;15322070;19;20026;-88
2022/12/24 18:31:20;;;;;;;5.10;1.67;;;;;;;5.93;100.00;98397.69;15327950;19;20014;-91
2022/12/24 18:36:45;;;;;;;5.70;1.52;;;;;;;5.91;100.00;98386.25;15365862;19;20282;-82
2022/12/24 18:42:22;;;;;;;7.28;1.70;;;;;;;5.90;100.00;98403.28;15321338;19;20089;-82
2022/12/24 18:47:51;;;;;;;7.05;2.55;;;;;;;5.84;100.00;98413.50;15316685;19;20495;-85
2022/12/24 18:53:20;;;;;;;6.30;2.30;;;;;;;5.83;100.00;98403.78;15317154;19;20086;-84
2022/12/24 18:58:47;;;;;;;6.18;2.10;;;;;;;5.79;100.00;98407.72;15316560;19;20473;-83
2022/12/24 19:04:15;;;;;;;6.35;2.40;;;;;;;5.72;100.00;98411.88;15308450;19;20431;-84
2022/12/24 19:09:46;;;;;;;7.40;2.20;;;;;;;5.60;100.00;98402.22;15314155;19;20444;-83
2022/12/24 19:15:17;;;;;;;7.50;2.33;;;;;;;5.57;100.00;98406.03;15312882;19;20022;-84
2022/12/24 19:20:50;;;;;;;5.50;2.33;;;;;;;5.47;100.00;98403.28;15313277;19;20023;-83
2022/12/24 19:26:18;;;;;;;6.97;2.83;;;;;;;5.44;100.00;98419.59;15318483;19;20019;-83
2022/12/24 19:31:45;;;;;;;8.93;2.08;;;;;;;5.39;100.00;98425.31;15312199;19;20022;-83
2022/12/24 19:37:13;;;;;;;5.47;2.00;;;;;;;5.34;100.00;98434.69;15302137;19;20021;-83
2022/12/24 19:42:38;;;;;;;8.57;2.30;;;;;;;5.30;100.00;98443.91;15310459;19;20157;-83
2022/12/24 19:48:03;;;;;;;6.75;2.10;;;;;;;5.20;100.00;98444.69;15310585;19;20086;-85
2022/12/24 19:53:36;;;;;;;8.65;2.30;;;;;;;5.15;100.00;98459.41;15310994;19;20014;-86
2022/12/24 19:59:06;;;;;;;9.50;2.05;;;;;;;5.15;100.00;98467.41;15315030;19;20018;-84
2022/12/24 20:04:31;;;;;;;9.00;2.30;;;;;;;5.12;100.00;98492.53;15332387;19;20023;-85
2022/12/24 20:09:58;;;;;;;7.18;2.60;;;;;;;5.13;100.00;98496.88;15307457;19;20090;-83
2022/12/24 20:15:27;;;;;;;7.30;2.30;;;;;;;5.11;100.00;98506.00;15326364;19;20709;-85
2022/12/24 20:20:56;;;;;;;9.18;2.40;;;;;;;5.08;100.00;98518.63;15333563;19;20007;-84
2022/12/24 20:26:25;;;;;;;8.40;2.22;;;;;;;5.07;100.00;98524.09;15315030;19;20029;-83
2022/12/24 21:36:52;;;;;;;8.82;3.05;;;;;;;4.98;100.00;98573.75;15277499;19;20015;-61
2022/12/24 21:42:17;;;;;;;10.13;3.10;;;;;;;4.99;100.00;98574.63;15276440;19;20014;-60
2022/12/24 21:47:43;;;;;;;13.23;3.38;;;;;;;5.02;100.00;98579.69;15284671;19;20064;-61
2022/12/24 21:58:49;;;;;;;14.30;3.22;;;;;;;5.03;100.00;98614.31;15294977;19;20020;-61
2022/12/24 22:04:14;;;;;;;11.18;3.13;;;;;;;5.05;100.00;98611.50;15312642;19;20014;-62
2022/12/24 22:15:19;;;;;;;11.68;3.08;;;;;;;5.06;100.00;98605.19;15302536;19;20034;-60
2022/12/24 22:26:40;;;;;;;9.50;2.63;;;;;;;5.06;100.00;98630.06;15303525;19;19991;-63
2022/12/24 22:32:05;;;;;;;10.02;3.00;;;;;;;5.07;100.00;98628.25;15299640;19;20014;-57
2022/12/24 22:37:29;;;;;;;9.02;2.80;;;;;;;5.09;100.00;98629.00;15308406;19;20548;-61
2022/12/24 22:42:56;;;;;;;11.05;3.40;;;;;;;5.11;100.00;98623.53;15306302;19;20018;-62
2022/12/24 22:48:21;;;;;;;9.45;3.17;;;;;;;5.09;100.00;98639.66;15299872;19;20038;-58
2022/12/24 22:53:46;;;;;;;10.20;2.95;;;;;;;5.12;100.00;98644.75;15305140;19;20010;-59
2022/12/24 23:05:08;;;;;;;8.68;2.70;;;;;;;5.14;100.00;98650.81;15299585;19;20007;-61
2022/12/24 23:10:33;;;;;;;11.77;2.70;;;;;;;5.13;100.00;98649.13;15292531;19;20081;-60
2022/12/24 23:15:59;;;;;;;7.85;2.58;;;;;;;5.12;100.00;98660.78;15286697;19;20010;-61
2022/12/24 23:21:28;;;;;;;8.38;2.45;;;;;;;5.10;100.00;98646.72;15284394;19;20092;-60
2022/12/24 23:26:52;;;;;;;11.77;2.78;;;;;;;5.13;100.00;98646.44;15292363;19;20025;-63
2022/12/24 23:32:17;;;;;;;9.60;2.47;;;;;;;5.16;100.00;98637.38;15291878;19;20073;-60
2022/12/24 23:37:51;;;;;;;11.82;2.90;;;;;;;5.18;100.00;98628.25;15281767;19;20015;-63
2022/12/24 23:43:18;;;;;;;7.72;2.60;;;;;;;5.20;100.00;98617.44;15286119;19;20078;-65
2022/12/24 23:48:42;;;;;;;10.32;2.60;;;;;;;5.20;100.00;98620.09;15290681;19;20010;-62
2022/12/24 23:54:09;;;;;;;11.35;2.90;;;;;;;5.21;100.00;98611.13;15284279;19;20010;-62
2022/12/24 23:59:34;;;;;;;9.98;2.70;;;;;;;5.22;100.00;98616.38;15291113;19;21233;-61
